Volk Field
KVOK : now visible

Airfield :











YOU CAN JOIN US ON...

 
LOGIN :

Register | Disclaimer

   EN    FR    IT 

 









Legend :    VFR   Marginal VFR   IFR   Intensive IFR   Very Intensive IFR
Visi :
Ceiling :
>= 8 km
>= 3000ft
5 to 8 km
1000 to 3000 ft
1500m to 5 km
500 to 1000 ft
800 to 1500m
200 to 500 ft
< 800m
< 200 ft
Symbols :   Thunderstorms  Fog  Heavy snow  Heavy precipitations  Wind > 20 kt






- Airport Elevation : 912 ft


KVOK - Volk Field

CURRENT METAR :
  • 180606Z AUTO 30006KT 2 3/4SM -SN BR OVC006 M01/M01 A2980 RMK AO2 VIS 1 5/8V2 3/4 SLP105

EXPIRED METARs :
  • 180521Z AUTO 31003KT 1 1/4SM -SN BR OVC004 M01/M01 A2979 RMK AO2 CIG 004V006 SLP101
  • 180456Z AUTO 33003KT 1 1/8SM -SN BR OVC006 M01/M01 A2979 RMK AO2 SLP102 P0002 T10071007
  • 180448Z AUTO 33004KT 1 1/8SM -SN BR OVC007 M01/M01 A2979 RMK AO2 CIG 007V011 SLP102
  • 180443Z AUTO 34003KT 1SM -SN BR VV007 M01/M01 A2979 RMK AO2 VIS 1V1 5/8 CIG 007V011 SLP102 RVRNO $
  • 180436Z AUTO 34003KT 1 3/8SM -SN BR OVC010 M01/M01 A2979 RMK AO2 VIS 1 3/8V2 3/4 SLP102
  • 180416Z AUTO 35004KT 3SM -SN BR OVC010 M01/M01 A2980 RMK AO2 SLP105
  • 180401Z AUTO 00000KT 2 1/2SM -SN BR OVC009 M01/M01 A2979 RMK AO2 VIS 2 1/2V3 SLP102
  • 180356Z AUTO 00000KT 2 3/4SM -SN BR OVC009 00/00 A2980 RMK AO2 SLP105 P0001 T10051005
  • 180326Z AUTO 00000KT 3SM -SN BR OVC009 00/00 A2980 RMK AO2 SLP105
  • 180306Z AUTO 00000KT 2 1/4SM -SN BR OVC008 00/00 A2980 RMK AO2 VIS 1 3/4V2 1/2 SLP105

Expired Forecast.



MET'MAP, your aeronautical weather chart ! - Copyright ORBIFLY December 2007 - Disclaimer

ORBIFLY MET'MAP TEAM :

Programming & Development : Alexandra Zaïnal
Concept & original design : Baudouin d'Aumeries
Assistance for programming : Marc-Olivier Méhu
Technical & hardware support : Manuel Goepfert

Contact : metmap@orbifly.com




SOURCES & CREDITS :

   NOAA       Earth
Advisory